createdAt,value
2023-02-05T00:02:01.071Z,2.00
2023-02-05T00:05:22.708Z,2.00
2023-02-05T00:08:44.357Z,2.00
2023-02-05T00:12:07.672Z,2.10
2023-02-05T00:15:29.239Z,2.10
2023-02-05T00:18:50.963Z,2.10
2023-02-05T00:22:12.548Z,2.20
2023-02-05T00:25:34.385Z,2.20
2023-02-05T00:28:57.501Z,2.30
2023-02-05T00:32:19.093Z,2.30
2023-02-05T00:35:42.033Z,2.30
2023-02-05T00:39:03.748Z,2.40
2023-02-05T00:42:25.322Z,2.30
2023-02-05T00:45:48.461Z,2.30
2023-02-05T00:49:10.108Z,2.30
2023-02-05T00:52:31.732Z,2.20
2023-02-05T00:55:53.603Z,2.20
2023-02-05T00:59:15.307Z,2.10
2023-02-05T01:02:38.269Z,2.00
2023-02-05T01:05:59.934Z,2.00
2023-02-05T01:09:21.916Z,2.00
2023-02-05T01:12:43.483Z,2.00
2023-02-05T01:16:05.455Z,2.00
2023-02-05T01:19:28.429Z,2.10
2023-02-05T01:22:50.023Z,2.10
2023-02-05T01:26:11.601Z,2.20
2023-02-05T01:29:33.182Z,2.20
2023-02-05T01:32:54.788Z,2.20
2023-02-05T01:36:17.755Z,2.20
2023-02-05T01:39:39.375Z,2.20
2023-02-05T01:43:00.987Z,2.20
2023-02-05T01:46:25.681Z,2.20
2023-02-05T01:49:47.291Z,2.20
2023-02-05T01:53:11.535Z,2.20
2023-02-05T01:56:34.623Z,2.20
2023-02-05T01:59:57.157Z,2.20
2023-02-05T02:03:18.924Z,2.10
2023-02-05T02:06:40.758Z,2.10
2023-02-05T02:10:04.035Z,2.10
2023-02-05T02:13:26.844Z,2.10
2023-02-05T02:16:48.452Z,2.00
2023-02-05T02:20:11.214Z,2.10
2023-02-05T02:23:40.087Z,2.10
2023-02-05T02:27:11.570Z,2.20
2023-02-05T02:30:39.466Z,2.20
2023-02-05T02:34:02.373Z,2.30
2023-02-05T02:37:25.246Z,2.30
2023-02-05T02:40:49.246Z,2.20
2023-02-05T02:44:12.421Z,2.20
2023-02-05T02:47:37.683Z,2.20
2023-02-05T02:50:59.795Z,2.30
2023-02-05T02:54:22.278Z,2.30
2023-02-05T02:57:44.952Z,2.30
2023-02-05T03:01:07.945Z,2.30
2023-02-05T03:04:31.998Z,2.30
2023-02-05T03:07:56.429Z,2.30
2023-02-05T03:11:18.028Z,2.30
2023-02-05T03:14:39.606Z,2.30
2023-02-05T03:18:01.189Z,2.30
2023-02-05T03:21:25.615Z,2.30
2023-02-05T03:24:47.203Z,2.20
2023-02-05T03:28:08.939Z,2.20
2023-02-05T03:31:35.653Z,2.20
2023-02-05T03:35:01.879Z,2.20
2023-02-05T03:38:34.010Z,2.10
2023-02-05T03:42:02.801Z,2.10
2023-02-05T03:45:42.301Z,2.10
2023-02-05T03:49:06.843Z,2.10
2023-02-05T03:52:31.404Z,2.20
2023-02-05T03:55:58.197Z,2.10
2023-02-05T03:59:20.381Z,2.10
2023-02-05T04:02:42.581Z,2.10
2023-02-05T04:06:04.613Z,2.10
2023-02-05T04:09:26.287Z,2.00
2023-02-05T04:12:49.229Z,2.00
2023-02-05T04:16:10.872Z,1.90
2023-02-05T04:19:32.511Z,1.90
2023-02-05T04:22:54.155Z,1.80
2023-02-05T04:26:15.741Z,1.70
2023-02-05T04:29:38.699Z,1.70
2023-02-05T04:33:00.356Z,1.70
2023-02-05T04:36:21.931Z,1.70
2023-02-05T04:39:43.510Z,1.80
2023-02-05T04:43:05.103Z,1.90
2023-02-05T04:46:28.101Z,1.90
2023-02-05T04:49:49.745Z,1.90
2023-02-05T04:53:11.361Z,1.90
2023-02-05T04:56:33.016Z,1.80
2023-02-05T04:59:54.581Z,1.70
2023-02-05T05:03:17.504Z,1.70
2023-02-05T05:06:39.107Z,1.70
2023-02-05T05:10:00.776Z,1.60
2023-02-05T05:13:22.414Z,1.60
2023-02-05T05:16:44.196Z,1.60
2023-02-05T05:20:07.705Z,1.50
2023-02-05T05:23:29.417Z,1.40
2023-02-05T05:26:51.003Z,1.40
2023-02-05T05:30:13.280Z,1.40
2023-02-05T05:33:35.370Z,1.40
2023-02-05T05:36:58.320Z,1.50
2023-02-05T05:40:20.986Z,1.60
2023-02-05T05:43:42.807Z,1.70
2023-02-05T05:47:04.427Z,1.70
2023-02-05T05:50:25.995Z,1.80
2023-02-05T05:53:49.251Z,1.90
2023-02-05T05:57:10.861Z,1.90
2023-02-05T06:00:32.440Z,2.00
2023-02-05T06:03:54.022Z,2.00
2023-02-05T06:07:15.610Z,1.90
2023-02-05T06:10:38.554Z,1.90
2023-02-05T06:14:00.135Z,1.90
2023-02-05T06:17:21.710Z,1.90
2023-02-05T06:20:43.309Z,1.80
2023-02-05T06:24:05.277Z,1.80
2023-02-05T06:27:28.310Z,1.70
2023-02-05T06:30:50.028Z,1.70
2023-02-05T06:34:11.728Z,1.60
2023-02-05T06:37:46.589Z,1.60
2023-02-05T06:41:08.976Z,1.60
2023-02-05T06:44:32.069Z,1.50
2023-02-05T06:47:53.678Z,1.60
2023-02-05T06:51:15.275Z,1.60
2023-02-05T06:54:36.864Z,1.60
2023-02-05T06:57:58.492Z,1.60
2023-02-05T07:01:21.605Z,1.60
2023-02-05T07:04:43.227Z,1.70
2023-02-05T07:08:05.276Z,1.70
2023-02-05T07:11:26.989Z,1.70
2023-02-05T07:14:48.850Z,1.80
2023-02-05T07:18:11.813Z,1.80
2023-02-05T07:21:33.625Z,1.90
2023-02-05T07:24:55.513Z,1.90
2023-02-05T07:28:17.257Z,2.00
2023-02-05T07:31:39.136Z,2.20
2023-02-05T07:35:02.450Z,2.20
2023-02-05T07:38:24.446Z,2.30
2023-02-05T07:41:46.159Z,2.30
2023-02-05T07:45:08.292Z,2.30
2023-02-05T07:48:30.239Z,2.30
2023-02-05T07:51:53.235Z,2.30
2023-02-05T07:55:15.034Z,2.40
2023-02-05T07:58:36.832Z,2.50
2023-02-05T08:01:58.518Z,2.50
2023-02-05T08:05:20.222Z,2.60
2023-02-05T08:08:43.641Z,2.60
2023-02-05T08:12:05.762Z,2.60
2023-02-05T08:15:27.396Z,2.60
2023-02-05T08:18:49.703Z,2.50
2023-02-05T08:22:11.283Z,2.60
2023-02-05T08:25:34.584Z,2.60
2023-02-05T08:28:56.342Z,2.60
2023-02-05T08:32:17.942Z,2.70
2023-02-05T08:35:39.563Z,2.80
2023-02-05T08:39:01.218Z,2.80
2023-02-05T08:42:24.191Z,2.80
2023-02-05T08:45:46.415Z,2.80
2023-02-05T08:49:08.168Z,2.90
2023-02-05T08:52:29.761Z,2.90
2023-02-05T08:55:54.392Z,2.90
2023-02-05T08:59:17.614Z,3.00
2023-02-05T09:02:40.707Z,3.10
2023-02-05T09:06:05.132Z,3.10
2023-02-05T09:09:27.859Z,3.20
2023-02-05T09:12:50.038Z,3.20
2023-02-05T09:16:13.002Z,3.30
2023-02-05T09:19:34.732Z,3.20
2023-02-05T09:22:56.330Z,3.30
2023-02-05T09:26:18.074Z,3.30
2023-02-05T09:29:39.679Z,3.30
2023-02-05T09:33:03.667Z,3.40
2023-02-05T09:36:25.248Z,3.40
2023-02-05T09:43:37.660Z,3.40
2023-02-05T09:47:01.369Z,3.50
2023-02-05T09:50:26.477Z,3.50
2023-02-05T09:53:50.890Z,3.60
2023-02-05T09:57:15.251Z,3.50
2023-02-05T10:00:39.664Z,3.60
2023-02-05T10:04:01.867Z,3.60
2023-02-05T10:07:30.903Z,3.60
2023-02-05T10:10:53.937Z,3.50
2023-02-05T10:14:19.863Z,3.50
2023-02-05T10:17:46.143Z,3.50
2023-02-05T10:21:14.249Z,3.50
2023-02-05T10:24:43.187Z,3.50
2023-02-05T10:28:11.006Z,3.40
2023-02-05T10:31:38.414Z,3.40
2023-02-05T10:35:03.197Z,3.40
2023-02-05T10:38:25.720Z,3.40
2023-02-05T10:41:51.768Z,3.40
2023-02-05T10:45:14.649Z,3.40
2023-02-05T10:48:39.634Z,3.50
2023-02-05T10:52:01.304Z,3.60
2023-02-05T10:55:23.049Z,3.70
2023-02-05T10:58:47.785Z,3.80
2023-02-05T11:02:10.613Z,4.00
2023-02-05T11:05:36.902Z,4.10
2023-02-05T11:08:58.588Z,4.20
2023-02-05T11:12:23.169Z,4.30
2023-02-05T11:15:54.895Z,4.40
2023-02-05T11:19:19.394Z,4.40
2023-02-05T11:22:41.055Z,4.40
2023-02-05T11:26:07.386Z,4.30
2023-02-05T11:29:28.983Z,4.30
2023-02-05T11:32:52.165Z,4.30
2023-02-05T11:36:16.675Z,4.30
2023-02-05T11:39:39.549Z,4.30
2023-02-05T11:43:03.843Z,4.20
2023-02-05T11:46:26.860Z,4.20
2023-02-05T11:49:51.009Z,4.20
2023-02-05T11:53:14.096Z,4.30
2023-02-05T11:56:35.720Z,4.30
2023-02-05T11:59:58.630Z,4.40
2023-02-05T12:03:20.360Z,4.40
2023-02-05T12:06:46.488Z,4.40
2023-02-05T12:10:14.248Z,4.30
2023-02-05T12:13:48.977Z,4.40
2023-02-05T12:17:25.778Z,4.40
2023-02-05T12:20:49.882Z,4.50
2023-02-05T12:24:22.896Z,4.50
2023-02-05T12:27:57.260Z,4.60
2023-02-05T12:31:22.044Z,4.60
2023-02-05T12:34:52.104Z,4.70
2023-02-05T12:38:27.297Z,4.70
2023-02-05T12:41:58.180Z,4.70
2023-02-05T12:45:32.616Z,4.70
2023-02-05T12:49:01.089Z,4.70
2023-02-05T12:52:29.011Z,4.60
2023-02-05T12:56:02.173Z,4.60
2023-02-05T12:59:35.316Z,4.60
2023-02-05T13:02:59.103Z,4.60
2023-02-05T13:06:23.273Z,4.50
2023-02-05T13:09:47.751Z,4.60
2023-02-05T13:13:11.505Z,4.60
2023-02-05T13:16:35.786Z,4.60
2023-02-05T13:19:58.552Z,4.60
2023-02-05T13:23:20.301Z,4.60
2023-02-05T13:26:44.042Z,4.60
2023-02-05T13:30:09.366Z,4.50
2023-02-05T13:33:32.495Z,4.50
2023-02-05T13:37:14.855Z,4.40
2023-02-05T13:40:55.129Z,4.40
2023-02-05T13:44:37.514Z,4.30
2023-02-05T13:48:12.543Z,4.30
2023-02-05T13:51:40.884Z,4.20
2023-02-05T13:55:24.528Z,4.20
2023-02-05T13:58:49.344Z,4.10
2023-02-05T14:02:25.814Z,3.90
2023-02-05T14:05:47.389Z,3.80
2023-02-05T14:09:17.983Z,3.80
2023-02-05T14:12:39.778Z,3.70
2023-02-05T14:16:16.268Z,3.80
2023-02-05T14:19:51.219Z,3.70
2023-02-05T14:23:14.502Z,3.60
2023-02-05T14:26:47.634Z,3.60
2023-02-05T14:30:28.168Z,3.50
2023-02-05T14:33:49.826Z,3.50
2023-02-05T14:37:25.606Z,3.40
2023-02-05T14:41:00.483Z,3.30
2023-02-05T14:44:33.165Z,3.30
2023-02-05T14:47:55.956Z,3.30
2023-02-05T14:51:22.367Z,3.20
2023-02-05T14:54:47.142Z,3.10
2023-02-05T14:58:17.176Z,3.00
2023-02-05T15:01:44.424Z,3.00
2023-02-05T15:05:06.381Z,3.00
2023-02-05T15:08:36.705Z,3.00
2023-02-05T15:12:08.795Z,3.00
2023-02-05T15:15:31.610Z,2.90
2023-02-05T15:18:55.505Z,2.90
2023-02-05T15:22:23.942Z,2.90
2023-02-05T15:25:50.684Z,2.90
2023-02-05T15:29:13.418Z,2.90
2023-02-05T15:32:39.082Z,2.90
2023-02-05T15:36:05.094Z,2.90
2023-02-05T15:39:30.074Z,2.90
2023-02-05T15:42:53.113Z,2.80
2023-02-05T15:46:16.145Z,2.80
2023-02-05T15:49:39.811Z,2.80
2023-02-05T15:53:06.944Z,2.80
2023-02-05T15:56:29.714Z,2.70
2023-02-05T15:59:51.984Z,2.70
2023-02-05T16:03:24.510Z,2.60
2023-02-05T16:06:46.375Z,2.50
2023-02-05T16:10:16.836Z,2.50
2023-02-05T16:13:38.428Z,2.50
2023-02-05T16:17:04.930Z,2.50
2023-02-05T16:20:30.161Z,2.50
2023-02-05T16:23:56.342Z,2.50
2023-02-05T16:27:20.651Z,2.50
2023-02-05T16:30:43.721Z,2.50
2023-02-05T16:34:06.701Z,2.50
2023-02-05T16:37:29.740Z,2.50
2023-02-05T16:40:52.839Z,2.50
2023-02-05T16:44:27.418Z,2.50
2023-02-05T16:48:07.790Z,2.50
2023-02-05T16:51:38.078Z,2.60
2023-02-05T16:55:04.584Z,2.60
2023-02-05T16:58:27.936Z,2.60
2023-02-05T17:01:52.093Z,2.60
2023-02-05T17:05:22.371Z,2.50
2023-02-05T17:08:49.311Z,2.50
2023-02-05T17:12:24.035Z,2.60
2023-02-05T17:15:46.709Z,2.50
2023-02-05T17:19:23.734Z,2.60
2023-02-05T17:23:06.080Z,2.60
2023-02-05T17:26:28.855Z,2.60
2023-02-05T17:29:50.788Z,2.60
2023-02-05T17:33:15.368Z,2.60
2023-02-05T17:36:38.340Z,2.70
2023-02-05T17:40:00.049Z,2.70
2023-02-05T17:43:21.738Z,2.70
2023-02-05T17:46:43.776Z,2.70
2023-02-05T17:50:05.620Z,2.70
2023-02-05T17:53:28.605Z,2.70
2023-02-05T17:56:50.287Z,2.70
2023-02-05T18:00:13.226Z,2.80
2023-02-05T18:03:34.964Z,2.80
2023-02-05T18:06:56.683Z,2.80
2023-02-05T18:10:23.126Z,2.80
2023-02-05T18:13:44.882Z,2.80
2023-02-05T18:17:06.760Z,2.90
2023-02-05T18:20:28.408Z,2.90
2023-02-05T18:23:50.046Z,2.90
2023-02-05T18:27:13.125Z,2.90
2023-02-05T18:30:35.096Z,3.00
2023-02-05T18:33:56.868Z,3.00
2023-02-05T18:37:18.801Z,3.00
2023-02-05T18:40:40.378Z,3.10
2023-02-05T18:44:03.556Z,3.10
2023-02-05T18:47:25.193Z,3.10
2023-02-05T18:50:47.001Z,3.00
2023-02-05T18:54:08.604Z,3.10
2023-02-05T18:57:30.247Z,3.00
2023-02-05T19:00:59.153Z,3.00
2023-02-05T19:04:21.072Z,3.00
2023-02-05T19:07:42.750Z,3.00
2023-02-05T19:11:07.958Z,3.00
2023-02-05T19:14:29.548Z,3.00
2023-02-05T19:17:52.582Z,3.00
2023-02-05T19:21:15.427Z,3.00
2023-02-05T19:24:37.499Z,2.90
2023-02-05T19:27:59.413Z,2.90
2023-02-05T19:31:21.600Z,2.90
2023-02-05T19:34:44.635Z,2.80
2023-02-05T19:38:06.256Z,2.80
2023-02-05T19:41:28.715Z,2.70
2023-02-05T19:44:50.422Z,2.70
2023-02-05T19:48:12.058Z,2.70
2023-02-05T19:51:38.187Z,2.70
2023-02-05T19:55:00.084Z,2.70
2023-02-05T19:58:21.756Z,2.70
2023-02-05T20:01:44.297Z,2.60
2023-02-05T20:05:06.259Z,2.60
2023-02-05T20:08:29.425Z,2.60
2023-02-05T20:11:51.874Z,2.60
2023-02-05T20:15:13.875Z,2.60
2023-02-05T20:18:35.600Z,2.60
2023-02-05T20:21:57.213Z,2.60
2023-02-05T20:25:20.555Z,2.60
2023-02-05T20:28:42.165Z,2.60
2023-02-05T20:32:04.241Z,2.60
2023-02-05T20:35:25.819Z,2.60
2023-02-05T20:38:47.401Z,2.50
2023-02-05T20:42:10.991Z,2.50
2023-02-05T20:45:33.759Z,2.50
2023-02-05T20:48:55.448Z,2.50
2023-02-05T20:52:17.041Z,2.40
2023-02-05T20:55:39.187Z,2.30
2023-02-05T20:59:03.491Z,2.30
2023-02-05T21:02:25.139Z,2.20
2023-02-05T21:05:46.714Z,2.30
2023-02-05T21:09:08.971Z,2.30
2023-02-05T21:12:30.557Z,2.30
2023-02-05T21:15:54.393Z,2.30
2023-02-05T21:19:16.321Z,2.30
2023-02-05T21:22:37.908Z,2.30
2023-02-05T21:25:59.524Z,2.30
2023-02-05T21:29:21.376Z,2.30
2023-02-05T21:32:44.303Z,2.30
2023-02-05T21:36:06.887Z,2.30
2023-02-05T21:39:28.521Z,2.30
2023-02-05T21:42:50.236Z,2.30
2023-02-05T21:46:13.128Z,2.30
2023-02-05T21:49:36.107Z,2.30
2023-02-05T21:52:57.695Z,2.30
2023-02-05T21:56:19.278Z,2.30
2023-02-05T21:59:40.888Z,2.30
2023-02-05T22:03:02.566Z,2.30
2023-02-05T22:06:27.030Z,2.30
2023-02-05T22:09:48.656Z,2.30
2023-02-05T22:13:10.280Z,2.30
2023-02-05T22:16:32.762Z,2.30
2023-02-05T22:19:54.492Z,2.30
2023-02-05T22:23:17.436Z,2.40
2023-02-05T22:26:39.216Z,2.40
2023-02-05T22:30:00.944Z,2.40
2023-02-05T22:33:22.546Z,2.40
2023-02-05T22:36:44.201Z,2.40
2023-02-05T22:40:07.906Z,2.40
2023-02-05T22:43:29.582Z,2.50
2023-02-05T22:46:51.164Z,2.50
2023-02-05T22:50:12.745Z,2.50
2023-02-05T22:53:34.584Z,2.50
2023-02-05T22:56:57.513Z,2.50
2023-02-05T23:00:19.512Z,2.50
2023-02-05T23:03:41.717Z,2.50
2023-02-05T23:07:03.364Z,2.40
2023-02-05T23:10:24.953Z,2.50
2023-02-05T23:13:47.881Z,2.40
2023-02-05T23:17:09.501Z,2.40
2023-02-05T23:20:31.070Z,2.40
2023-02-05T23:23:53.049Z,2.40
2023-02-05T23:27:14.670Z,2.30
2023-02-05T23:30:37.757Z,2.30
2023-02-05T23:33:59.406Z,2.30
2023-02-05T23:37:21.034Z,2.30
2023-02-05T23:40:42.634Z,2.30
2023-02-05T23:44:06.022Z,2.30
2023-02-05T23:47:28.939Z,2.30
2023-02-05T23:50:50.575Z,2.30
2023-02-05T23:54:12.335Z,2.30
2023-02-05T23:57:33.936Z,2.30
